createdAt,value
2023-03-29T00:02:11.167Z,100680.59
2023-03-29T00:04:45.243Z,100674.44
2023-03-29T00:07:18.399Z,100681.47
2023-03-29T00:09:51.489Z,100676.19
2023-03-29T00:12:24.460Z,100669.19
2023-03-29T00:14:58.803Z,100679.66
2023-03-29T00:17:32.036Z,100674.41
2023-03-29T00:20:08.548Z,100669.16
2023-03-29T00:22:43.136Z,100686.63
2023-03-29T00:25:16.381Z,100688.41
2023-03-29T00:27:49.417Z,100687.50
2023-03-29T00:30:23.815Z,100684.91
2023-03-29T00:33:02.042Z,100694.53
2023-03-29T00:35:35.524Z,100695.38
2023-03-29T00:38:08.546Z,100696.28
2023-03-29T00:40:43.813Z,100696.28
2023-03-29T00:43:17.609Z,100697.13
2023-03-29T00:45:52.044Z,100693.63
2023-03-29T00:48:29.043Z,100695.38
2023-03-29T00:51:08.208Z,100693.63
2023-03-29T00:53:48.381Z,100689.28
2023-03-29T00:56:25.110Z,100686.66
2023-03-29T00:59:02.368Z,100695.34
2023-03-29T01:01:43.362Z,100692.75
2023-03-29T01:04:21.153Z,100695.34
2023-03-29T01:06:58.337Z,100688.38
2023-03-29T01:09:35.073Z,100686.63
2023-03-29T01:12:14.414Z,100690.09
2023-03-29T01:14:52.494Z,100691.00
2023-03-29T01:17:26.959Z,100682.25
2023-03-29T01:20:10.802Z,100686.59
2023-03-29T01:23:06.610Z,100682.25
2023-03-29T01:25:47.300Z,100682.25
2023-03-29T01:28:24.379Z,100687.50
2023-03-29T01:31:03.802Z,100682.25
2023-03-29T01:33:42.669Z,100680.47
2023-03-29T01:36:20.161Z,100679.59
2023-03-29T01:38:58.158Z,100677.84
2023-03-29T01:41:41.357Z,100685.69
2023-03-29T01:44:20.639Z,100681.34
2023-03-29T01:46:56.900Z,100680.44
2023-03-29T01:49:38.070Z,100678.69
2023-03-29T01:52:17.403Z,100683.03
2023-03-29T01:54:57.263Z,100683.91
2023-03-29T01:57:33.065Z,100677.78
2023-03-29T02:00:11.084Z,100678.66
2023-03-29T02:02:48.033Z,100678.63
2023-03-29T02:05:24.525Z,100680.38
2023-03-29T02:08:00.003Z,100682.06
2023-03-29T02:10:35.085Z,100686.44
2023-03-29T02:13:09.432Z,100686.41
2023-03-29T02:15:45.627Z,100679.41
2023-03-29T02:18:21.055Z,100684.63
2023-03-29T02:20:56.103Z,100678.53
2023-03-29T02:23:34.961Z,100685.47
2023-03-29T02:26:09.080Z,100682.81
2023-03-29T02:28:42.818Z,100679.31
2023-03-29T02:31:24.944Z,100675.84
2023-03-29T02:34:03.399Z,100681.03
2023-03-29T02:36:41.720Z,100679.25
2023-03-29T02:39:17.095Z,100680.13
2023-03-29T02:41:52.406Z,100683.59
2023-03-29T02:44:28.915Z,100680.09
2023-03-29T02:47:07.746Z,100685.28
2023-03-29T02:49:40.721Z,100688.75
2023-03-29T02:52:18.818Z,100688.72
2023-03-29T02:54:55.168Z,100696.56
2023-03-29T02:57:28.759Z,100693.06
2023-03-29T03:00:04.633Z,100692.16
2023-03-29T03:02:39.292Z,100694.75
2023-03-29T03:05:14.182Z,100692.97
2023-03-29T03:07:47.448Z,100696.44
2023-03-29T03:10:20.452Z,100696.44
2023-03-29T03:12:53.455Z,100692.94
2023-03-29T03:15:27.394Z,100701.66
2023-03-29T03:18:02.239Z,100701.63
2023-03-29T03:20:35.320Z,100705.06
2023-03-29T03:23:09.757Z,100702.47
2023-03-29T03:25:45.840Z,100702.44
2023-03-29T03:28:20.283Z,100699.81
2023-03-29T03:30:54.236Z,100709.41
2023-03-29T03:33:47.438Z,100711.13
2023-03-29T03:36:43.227Z,100710.25
2023-03-29T03:39:18.364Z,100712.88
2023-03-29T03:41:51.503Z,100714.59
2023-03-29T03:44:24.942Z,100711.97
2023-03-29T03:47:14.798Z,100714.56
2023-03-29T03:49:49.977Z,100713.66
2023-03-29T03:52:25.273Z,100700.59
2023-03-29T03:54:58.344Z,100710.31
2023-03-29T03:57:47.959Z,100717.16
2023-03-29T04:00:24.360Z,100713.63
2023-03-29T04:03:17.183Z,100711.00
2023-03-29T04:05:52.052Z,100713.56
2023-03-29T04:08:27.256Z,100712.69
2023-03-29T04:11:15.331Z,100714.41
2023-03-29T04:13:48.885Z,100720.53
2023-03-29T04:16:34.920Z,100712.69
2023-03-29T04:19:23.090Z,100710.97
2023-03-29T04:21:57.920Z,100718.78
2023-03-29T04:24:30.944Z,100713.53
2023-03-29T04:27:24.209Z,100717.00
2023-03-29T04:29:57.319Z,100714.41
2023-03-29T04:32:50.500Z,100713.53
2023-03-29T04:35:24.982Z,100717.00
2023-03-29T04:37:59.545Z,100720.53
2023-03-29T04:40:33.513Z,100724.03
2023-03-29T04:43:23.764Z,100717.94
2023-03-29T04:46:13.270Z,100725.78
2023-03-29T04:49:05.906Z,100722.34
2023-03-29T04:51:42.377Z,100727.63
2023-03-29T04:54:17.702Z,100725.00
2023-03-29T04:57:19.693Z,100729.34
2023-03-29T05:00:16.952Z,100727.66
2023-03-29T05:03:08.113Z,100724.22
2023-03-29T05:05:45.364Z,100728.63
2023-03-29T05:08:18.535Z,100727.78
2023-03-29T05:11:13.642Z,100724.31
2023-03-29T05:13:48.345Z,100723.50
2023-03-29T05:16:21.658Z,100724.44
2023-03-29T05:18:55.378Z,100734.97
2023-03-29T05:21:29.435Z,100726.28
2023-03-29T05:24:06.132Z,100719.41
2023-03-29T05:27:00.502Z,100721.25
2023-03-29T05:29:36.737Z,100726.59
2023-03-29T05:32:28.698Z,100726.75
2023-03-29T05:35:01.876Z,100726.00
2023-03-29T05:37:35.127Z,100730.50
2023-03-29T05:40:10.370Z,100726.31
2023-03-29T05:43:02.578Z,100727.34
2023-03-29T05:45:35.613Z,100725.72
2023-03-29T05:48:08.939Z,100729.31
2023-03-29T05:50:44.437Z,100731.16
2023-03-29T05:53:20.121Z,100732.16
2023-03-29T05:55:54.762Z,100729.63
2023-03-29T05:58:31.106Z,100727.94
2023-03-29T06:01:06.051Z,100734.13
2023-03-29T06:04:02.207Z,100738.53
2023-03-29T06:06:45.378Z,100736.84
2023-03-29T06:09:19.117Z,100741.25
2023-03-29T06:12:04.015Z,100738.63
2023-03-29T06:14:48.265Z,100742.13
2023-03-29T06:17:31.643Z,100744.78
2023-03-29T06:20:08.800Z,100737.75
2023-03-29T06:22:42.889Z,100738.63
2023-03-29T06:25:18.492Z,100735.97
2023-03-29T06:27:54.212Z,100739.44
2023-03-29T06:30:28.852Z,100735.00
2023-03-29T06:33:02.898Z,100741.97
2023-03-29T06:35:59.843Z,100741.91
2023-03-29T06:38:35.311Z,100742.69
2023-03-29T06:41:21.567Z,100739.13
2023-03-29T06:44:23.234Z,100742.59
2023-03-29T06:47:06.267Z,100747.81
2023-03-29T06:49:39.534Z,100750.38
2023-03-29T06:52:26.104Z,100744.13
2023-03-29T06:55:01.695Z,100734.31
2023-03-29T06:57:35.221Z,100742.97
2023-03-29T07:00:17.077Z,100737.53
2023-03-29T07:03:26.862Z,100741.72
2023-03-29T07:06:03.948Z,100745.94
2023-03-29T07:08:43.495Z,100745.72
2023-03-29T07:11:24.169Z,100745.44
2023-03-29T07:14:03.881Z,100741.72
2023-03-29T07:16:40.053Z,100741.50
2023-03-29T07:19:29.093Z,100740.34
2023-03-29T07:22:02.335Z,100738.31
2023-03-29T07:24:49.359Z,100729.13
2023-03-29T07:27:22.745Z,100727.88
2023-03-29T07:29:56.975Z,100728.38
2023-03-29T07:32:32.162Z,100722.59
2023-03-29T07:35:30.824Z,100718.50
2023-03-29T07:38:04.521Z,100720.59
2023-03-29T07:40:38.650Z,100714.66
2023-03-29T07:43:30.387Z,100720.47
2023-03-29T07:46:04.872Z,100715.84
2023-03-29T07:48:40.012Z,100717.31
2023-03-29T07:51:17.390Z,100704.53
2023-03-29T07:54:05.555Z,100711.25
2023-03-29T07:56:41.637Z,100702.66
2023-03-29T07:59:25.264Z,100711.34
2023-03-29T08:02:08.353Z,100709.16
2023-03-29T08:05:06.392Z,100706.03
2023-03-29T08:08:01.172Z,100698.84
2023-03-29T08:10:58.222Z,100696.97
2023-03-29T08:13:42.082Z,100692.28
2023-03-29T08:16:33.609Z,100692.97
2023-03-29T08:19:14.677Z,100679.00
2023-03-29T08:22:10.885Z,100677.84
2023-03-29T08:25:04.317Z,100686.38
2023-03-29T08:27:42.546Z,100672.97
2023-03-29T08:30:17.458Z,100671.22
2023-03-29T08:32:53.007Z,100666.69
2023-03-29T08:35:28.284Z,100665.69
2023-03-29T08:38:21.973Z,100669.69
2023-03-29T08:40:58.043Z,100667.69
2023-03-29T08:44:02.079Z,100657.56
2023-03-29T08:47:03.688Z,100659.34
2023-03-29T08:50:02.530Z,100665.97
2023-03-29T08:52:50.108Z,100674.19
2023-03-29T08:55:49.003Z,100668.56
2023-03-29T08:58:56.359Z,100659.34
2023-03-29T09:01:35.410Z,100656.47
2023-03-29T09:04:14.856Z,100660.47
2023-03-29T09:07:12.445Z,100655.81
2023-03-29T09:09:49.866Z,100662.34
2023-03-29T09:12:50.461Z,100656.34
2023-03-29T09:15:31.829Z,100653.41
2023-03-29T09:18:23.863Z,100651.78
2023-03-29T09:21:02.146Z,100651.88
2023-03-29T09:24:08.577Z,100641.72
2023-03-29T09:27:05.724Z,100644.34
2023-03-29T09:30:00.656Z,100639.22
2023-03-29T09:32:55.526Z,100633.50
2023-03-29T09:35:39.120Z,100638.19
2023-03-29T09:38:15.077Z,100632.09
2023-03-29T09:40:52.804Z,100637.97
2023-03-29T09:43:33.475Z,100636.31
2023-03-29T09:46:18.212Z,100630.38
2023-03-29T09:48:54.735Z,100628.03
2023-03-29T09:51:31.172Z,100633.41
2023-03-29T09:54:04.633Z,100632.25
2023-03-29T09:57:00.267Z,100625.50
2023-03-29T09:59:33.454Z,100623.25
2023-03-29T10:02:08.546Z,100615.41
2023-03-29T10:04:44.633Z,100619.69
2023-03-29T10:07:23.774Z,100619.91
2023-03-29T10:10:02.453Z,100616.69
2023-03-29T10:12:36.694Z,100610.31
2023-03-29T10:15:26.745Z,100619.69
2023-03-29T10:18:06.934Z,100612.84
2023-03-29T10:20:42.139Z,100603.06
2023-03-29T10:23:19.432Z,100608.13
2023-03-29T10:25:53.235Z,100603.97
2023-03-29T10:28:31.114Z,100612.28
2023-03-29T10:31:08.159Z,100607.09
2023-03-29T10:33:41.872Z,100603.28
2023-03-29T10:36:16.564Z,100597.31
2023-03-29T10:38:49.693Z,100601.56
2023-03-29T10:41:24.305Z,100589.88
2023-03-29T10:43:57.563Z,100591.56
2023-03-29T10:46:33.008Z,100590.91
2023-03-29T10:49:16.236Z,100589.56
2023-03-29T10:51:56.732Z,100588.16
2023-03-29T10:54:29.901Z,100579.22
2023-03-29T10:57:09.025Z,100581.38
2023-03-29T10:59:54.287Z,100583.88
2023-03-29T11:02:50.228Z,100578.09
2023-03-29T11:05:31.333Z,100575.31
2023-03-29T11:08:24.476Z,100572.63
2023-03-29T11:11:09.752Z,100558.47
2023-03-29T11:13:51.483Z,100562.94
2023-03-29T11:16:31.845Z,100558.78
2023-03-29T11:19:17.830Z,100553.53
2023-03-29T11:21:59.114Z,100558.84
2023-03-29T11:24:52.552Z,100555.78
2023-03-29T11:27:36.907Z,100558.34
2023-03-29T11:30:20.514Z,100553.22
2023-03-29T11:33:03.772Z,100555.75
2023-03-29T11:35:48.861Z,100539.22
2023-03-29T11:38:30.503Z,100536.41
2023-03-29T11:41:13.565Z,100530.72
2023-03-29T11:43:50.724Z,100522.22
2023-03-29T11:46:29.066Z,100531.50
2023-03-29T11:49:06.263Z,100528.50
2023-03-29T11:51:43.797Z,100519.66
2023-03-29T11:54:21.720Z,100511.81
2023-03-29T11:57:01.811Z,100512.66
2023-03-29T11:59:42.163Z,100504.16
2023-03-29T12:02:22.816Z,100506.94
2023-03-29T12:04:59.869Z,100490.31
2023-03-29T12:07:37.976Z,100495.81
2023-03-29T12:10:19.011Z,100496.22
2023-03-29T12:13:00.988Z,100491.59
2023-03-29T12:15:39.233Z,100486.28
2023-03-29T12:18:21.265Z,100483.25
2023-03-29T12:21:00.171Z,100486.41
2023-03-29T12:23:34.700Z,100486.31
2023-03-29T12:26:35.148Z,100479.84
2023-03-29T12:29:38.061Z,100471.06
2023-03-29T12:32:33.004Z,100468.69
2023-03-29T12:35:48.857Z,100465.13
2023-03-29T12:38:43.486Z,100470.50
2023-03-29T12:41:53.458Z,100468.91
2023-03-29T12:44:50.510Z,100472.94
2023-03-29T12:47:42.488Z,100461.22
2023-03-29T12:50:35.116Z,100461.84
2023-03-29T12:53:19.726Z,100450.97
2023-03-29T12:56:08.920Z,100446.78
2023-03-29T12:58:51.414Z,100454.47
2023-03-29T13:01:29.248Z,100451.28
2023-03-29T13:04:18.475Z,100454.94
2023-03-29T13:07:04.081Z,100449.47
2023-03-29T13:09:50.015Z,100451.75
2023-03-29T13:12:27.846Z,100454.09
2023-03-29T13:15:03.391Z,100448.97
2023-03-29T13:17:51.331Z,100446.38
2023-03-29T13:20:44.594Z,100442.56
2023-03-29T13:23:39.253Z,100443.94
2023-03-29T13:26:31.625Z,100451.34
2023-03-29T13:29:32.981Z,100453.13
2023-03-29T13:32:27.381Z,100437.66
2023-03-29T13:35:14.180Z,100434.84
2023-03-29T13:38:02.294Z,100428.75
2023-03-29T13:40:46.921Z,100435.66
2023-03-29T13:43:23.716Z,100427.25
2023-03-29T13:46:24.577Z,100429.88
2023-03-29T13:49:06.885Z,100423.88
2023-03-29T13:51:44.997Z,100423.00
2023-03-29T13:54:28.288Z,100420.09
2023-03-29T13:57:10.369Z,100418.09
2023-03-29T13:59:55.797Z,100416.88
2023-03-29T14:02:41.720Z,100420.41
2023-03-29T14:05:18.932Z,100408.88
2023-03-29T14:07:56.637Z,100415.91
2023-03-29T14:10:38.068Z,100406.78
2023-03-29T14:13:17.044Z,100416.16
2023-03-29T14:15:54.814Z,100409.59
2023-03-29T14:18:33.296Z,100409.00
2023-03-29T14:21:11.009Z,100409.19
2023-03-29T14:23:48.442Z,100411.09
2023-03-29T14:26:24.080Z,100413.00
2023-03-29T14:28:59.019Z,100402.50
2023-03-29T14:31:33.987Z,100406.34
2023-03-29T14:34:12.477Z,100408.41
2023-03-29T14:36:46.876Z,100403.44
2023-03-29T14:39:23.679Z,100400.16
2023-03-29T14:41:58.175Z,100397.69
2023-03-29T14:44:33.227Z,100410.41
2023-03-29T14:47:06.545Z,100405.28
2023-03-29T14:49:39.702Z,100403.56
2023-03-29T14:52:13.761Z,100398.41
2023-03-29T14:54:52.292Z,100391.59
2023-03-29T14:57:27.281Z,100393.47
2023-03-29T15:00:02.433Z,100395.34
2023-03-29T15:02:35.685Z,100402.56
2023-03-29T15:05:25.751Z,100405.22
2023-03-29T15:07:59.507Z,100398.50
2023-03-29T15:10:35.660Z,100395.19
2023-03-29T15:13:09.758Z,100391.78
2023-03-29T15:15:43.093Z,100384.72
2023-03-29T15:18:21.854Z,100386.59
2023-03-29T15:20:55.582Z,100381.31
2023-03-29T15:23:36.880Z,100375.09
2023-03-29T15:26:15.829Z,100372.56
2023-03-29T15:28:55.502Z,100371.63
2023-03-29T15:31:35.746Z,100373.38
2023-03-29T15:34:12.499Z,100368.91
2023-03-29T15:36:47.397Z,100368.13
2023-03-29T15:39:20.980Z,100367.22
2023-03-29T15:41:56.873Z,100361.03
2023-03-29T15:44:33.859Z,100362.00
2023-03-29T15:47:10.706Z,100361.22
2023-03-29T15:49:47.740Z,100356.97
2023-03-29T15:52:20.839Z,100352.75
2023-03-29T15:54:54.164Z,100352.09
2023-03-29T15:57:28.695Z,100342.59
2023-03-29T16:00:02.758Z,100347.22
2023-03-29T16:02:45.594Z,100345.53
2023-03-29T16:05:21.893Z,100344.00
2023-03-29T16:07:57.913Z,100352.19
2023-03-29T16:10:30.950Z,100348.88
2023-03-29T16:13:05.468Z,100344.50
2023-03-29T16:15:38.723Z,100339.31
2023-03-29T16:18:11.766Z,100344.75
2023-03-29T16:20:44.843Z,100336.97
2023-03-29T16:23:21.071Z,100341.56
2023-03-29T16:25:54.217Z,100330.16
2023-03-29T16:28:28.718Z,100331.25
2023-03-29T16:31:05.260Z,100333.19
2023-03-29T16:33:38.768Z,100324.59
2023-03-29T16:36:19.978Z,100318.59
2023-03-29T16:38:53.775Z,100318.84
2023-03-29T16:41:27.814Z,100310.06
2023-03-29T16:44:02.335Z,100318.72
2023-03-29T16:46:35.287Z,100316.97
2023-03-29T16:49:08.912Z,100312.28
2023-03-29T16:51:44.150Z,100310.81
2023-03-29T16:54:25.845Z,100311.84
2023-03-29T16:57:02.574Z,100309.31
2023-03-29T16:59:37.514Z,100298.78
2023-03-29T17:02:14.276Z,100303.38
2023-03-29T17:04:49.322Z,100298.09
2023-03-29T17:07:27.575Z,100305.22
2023-03-29T17:10:00.703Z,100300.81
2023-03-29T17:12:33.864Z,100300.81
2023-03-29T17:15:09.483Z,100303.53
2023-03-29T17:17:42.574Z,100307.16
2023-03-29T17:20:15.701Z,100313.41
2023-03-29T17:22:51.654Z,100316.13
2023-03-29T17:25:24.853Z,100316.13
2023-03-29T17:27:57.931Z,100326.78
2023-03-29T17:30:34.449Z,100327.63
2023-03-29T17:33:09.472Z,100331.25
2023-03-29T17:35:46.245Z,100330.47
2023-03-29T17:38:21.157Z,100340.44
2023-03-29T17:40:54.337Z,100352.16
2023-03-29T17:43:27.344Z,100337.25
2023-03-29T17:46:02.225Z,100338.38
2023-03-29T17:48:38.214Z,100351.88
2023-03-29T17:51:11.237Z,100349.44
2023-03-29T17:53:46.097Z,100343.41
2023-03-29T17:56:20.276Z,100348.00
2023-03-29T17:58:53.584Z,100342.94
2023-03-29T18:01:33.521Z,100346.63
2023-03-29T18:04:07.589Z,100338.75
2023-03-29T18:06:40.632Z,100335.28
2023-03-29T18:09:14.133Z,100331.78
2023-03-29T18:11:47.150Z,100332.78
2023-03-29T18:14:27.887Z,100339.88
2023-03-29T18:17:14.993Z,100335.53
2023-03-29T18:19:49.218Z,100340.00
2023-03-29T18:22:28.860Z,100341.78
2023-03-29T18:25:07.183Z,100340.88
2023-03-29T18:27:45.161Z,100343.47
2023-03-29T18:30:19.272Z,100337.34
2023-03-29T18:32:55.184Z,100339.13
2023-03-29T18:35:34.981Z,100338.25
2023-03-29T18:38:14.167Z,100329.41
2023-03-29T18:40:48.347Z,100332.06
2023-03-29T18:43:23.391Z,100340.88
2023-03-29T18:45:59.427Z,100331.13
2023-03-29T18:48:42.016Z,100334.78
2023-03-29T18:54:10.249Z,100336.72
2023-03-29T18:56:46.964Z,100332.41
2023-03-29T18:59:24.754Z,100329.78
2023-03-29T19:02:03.936Z,100327.22
2023-03-29T19:05:00.861Z,100335.22
2023-03-29T19:07:41.768Z,100335.25
2023-03-29T19:10:16.484Z,100336.22
2023-03-29T19:13:01.411Z,100334.50
2023-03-29T19:15:38.408Z,100331.00
2023-03-29T19:18:14.417Z,100327.59
2023-03-29T19:20:57.961Z,100329.50
2023-03-29T19:23:34.183Z,100326.13
2023-03-29T19:26:20.387Z,100332.56
2023-03-29T19:28:53.848Z,100314.22
2023-03-29T19:31:38.246Z,100317.97
2023-03-29T19:34:27.883Z,100302.28
2023-03-29T19:37:02.423Z,100306.81
2023-03-29T19:39:35.463Z,100307.84
2023-03-29T19:42:08.821Z,100303.56
2023-03-29T19:44:47.051Z,100301.00
2023-03-29T19:47:25.322Z,100303.81
2023-03-29T19:49:59.639Z,100301.25
2023-03-29T19:52:46.684Z,100307.50
2023-03-29T19:55:22.644Z,100289.06
2023-03-29T19:57:56.662Z,100296.31
2023-03-29T20:00:30.040Z,100292.84
2023-03-29T20:03:05.278Z,100288.53
2023-03-29T20:05:39.883Z,100287.72
2023-03-29T20:08:16.593Z,100281.69
2023-03-29T20:11:10.427Z,100276.44
2023-03-29T20:13:46.410Z,100265.06
2023-03-29T20:19:14.130Z,100251.06
2023-03-29T20:21:58.962Z,100263.50
2023-03-29T20:24:36.362Z,100262.63
2023-03-29T20:27:09.697Z,100258.22
2023-03-29T20:29:45.420Z,100266.19
2023-03-29T20:32:18.517Z,100262.63
2023-03-29T20:34:54.597Z,100258.22
2023-03-29T20:37:27.711Z,100252.97
2023-03-29T20:40:04.073Z,100245.81
2023-03-29T20:42:38.311Z,100242.25
2023-03-29T20:45:18.645Z,100239.53
2023-03-29T20:47:57.706Z,100241.28
2023-03-29T20:50:31.011Z,100235.97
2023-03-29T20:53:04.345Z,100233.38
2023-03-29T20:55:39.121Z,100241.38
2023-03-29T20:58:12.216Z,100236.19
2023-03-29T21:00:46.915Z,100228.25
2023-03-29T21:03:20.083Z,100232.78
2023-03-29T21:05:55.915Z,100222.34
2023-03-29T21:08:29.715Z,100219.72
2023-03-29T21:11:04.281Z,100228.63
2023-03-29T21:13:37.492Z,100221.69
2023-03-29T21:16:11.595Z,100221.69
2023-03-29T21:18:44.646Z,100220.00
2023-03-29T21:21:17.704Z,100227.97
2023-03-29T21:23:50.847Z,100232.38
2023-03-29T21:26:26.139Z,100226.25
2023-03-29T21:28:59.230Z,100224.47
2023-03-29T21:31:32.205Z,100225.41
2023-03-29T21:34:05.504Z,100225.44
2023-03-29T21:36:39.817Z,100223.69
2023-03-29T21:39:12.841Z,100223.75
2023-03-29T21:41:47.422Z,100222.03
2023-03-29T21:44:20.554Z,100222.13
2023-03-29T21:46:53.644Z,100222.22
2023-03-29T21:49:26.997Z,100226.72
2023-03-29T21:52:00.000Z,100225.81
2023-03-29T21:54:32.980Z,100225.00
2023-03-29T21:57:07.433Z,100220.75
2023-03-29T21:59:40.715Z,100209.38
2023-03-29T22:02:13.744Z,100215.69
2023-03-29T22:04:46.788Z,100206.97
2023-03-29T22:07:22.787Z,100215.03
2023-03-29T22:09:58.654Z,100202.75
2023-03-29T22:12:37.135Z,100203.66
2023-03-29T22:15:12.516Z,100211.69
2023-03-29T22:17:45.672Z,100212.63
2023-03-29T22:20:18.964Z,100209.09
2023-03-29T22:22:55.673Z,100198.50
2023-03-29T22:25:28.664Z,100195.06
2023-03-29T22:28:03.033Z,100192.44
2023-03-29T22:30:36.528Z,100196.03
2023-03-29T22:33:09.606Z,100197.84
2023-03-29T22:35:42.718Z,100202.34
2023-03-29T22:38:15.807Z,100198.75
2023-03-29T22:40:48.793Z,100204.97
2023-03-29T22:43:23.351Z,100196.22
2023-03-29T22:45:56.363Z,100198.16
2023-03-29T22:48:29.338Z,100199.97
2023-03-29T22:51:03.038Z,100200.06
2023-03-29T22:53:36.061Z,100189.25
2023-03-29T22:56:09.932Z,100194.94
2023-03-29T22:58:44.466Z,100189.41
2023-03-29T23:01:17.841Z,100184.59
2023-03-29T23:03:50.933Z,100187.41
2023-03-29T23:06:23.998Z,100189.31
2023-03-29T23:08:56.971Z,100187.72
2023-03-29T23:11:29.919Z,100190.44
2023-03-29T23:14:04.885Z,100188.81
2023-03-29T23:16:38.225Z,100190.78
2023-03-29T23:19:11.369Z,100191.72
2023-03-29T23:21:44.327Z,100185.63
2023-03-29T23:24:19.216Z,100186.59
2023-03-29T23:26:52.367Z,100180.47
2023-03-29T23:29:26.837Z,100173.44
2023-03-29T23:31:59.891Z,100169.91
2023-03-29T23:34:33.164Z,100172.56
2023-03-29T23:37:06.396Z,100175.19
2023-03-29T23:39:39.520Z,100163.81
2023-03-29T23:42:12.826Z,100168.22
2023-03-29T23:44:47.383Z,100154.94
2023-03-29T23:47:20.899Z,100156.63
2023-03-29T23:49:54.671Z,100155.59
2023-03-29T23:52:27.791Z,100157.28
2023-03-29T23:55:01.557Z,100151.91
2023-03-29T23:57:37.069Z,100148.28
